createdAt,value
2017-09-01T00:01:27.913Z,87.00
2017-09-01T00:03:55.523Z,87.10
2017-09-01T00:06:23.148Z,87.20
2017-09-01T00:08:50.768Z,87.10
2017-09-01T00:11:18.406Z,86.80
2017-09-01T00:13:46.042Z,87.20
2017-09-01T00:16:13.647Z,87.40
2017-09-01T00:18:41.303Z,87.30
2017-09-01T00:21:08.925Z,87.30
2017-09-01T00:23:36.524Z,87.10
2017-09-01T00:26:04.141Z,86.60
2017-09-01T00:28:31.772Z,86.60
2017-09-01T00:30:59.370Z,86.40
2017-09-01T00:33:26.982Z,86.60
2017-09-01T00:35:54.626Z,87.00
2017-09-01T00:38:22.220Z,87.10
2017-09-01T00:40:49.830Z,87.40
2017-09-01T00:43:17.458Z,87.60
2017-09-01T00:48:19.003Z,87.60
2017-09-01T00:50:46.640Z,87.50
2017-09-01T00:53:14.218Z,87.50
2017-09-01T00:55:41.833Z,87.50
2017-09-01T00:58:09.390Z,87.60
2017-09-01T01:00:36.947Z,87.50
2017-09-01T01:03:04.794Z,87.60
2017-09-01T01:05:32.411Z,87.40
2017-09-01T01:08:00.016Z,87.50
2017-09-01T01:10:27.912Z,87.70
2017-09-01T01:12:55.505Z,87.80
2017-09-01T01:15:23.124Z,87.80
2017-09-01T01:17:50.714Z,87.80
2017-09-01T01:20:18.504Z,87.80
2017-09-01T01:22:46.141Z,87.50
2017-09-01T01:25:13.795Z,87.50
2017-09-01T01:27:41.395Z,87.50
2017-09-01T01:30:09.011Z,87.10
2017-09-01T01:32:36.617Z,87.20
2017-09-01T01:35:05.093Z,87.10
2017-09-01T01:37:32.732Z,87.20
2017-09-01T01:40:00.382Z,87.00
2017-09-01T01:42:28.004Z,87.20
2017-09-01T01:44:55.599Z,87.50
2017-09-01T01:47:23.200Z,87.40
2017-09-01T01:49:50.818Z,87.20
2017-09-01T01:52:18.447Z,87.40
2017-09-01T01:54:46.085Z,87.30
2017-09-01T01:57:13.675Z,87.30
2017-09-01T01:59:41.289Z,87.20
2017-09-01T02:02:08.857Z,87.40
2017-09-01T02:04:36.485Z,87.30
2017-09-01T02:07:04.034Z,87.40
2017-09-01T02:09:32.486Z,87.50
2017-09-01T02:12:00.079Z,87.50
2017-09-01T02:14:27.658Z,87.60
2017-09-01T02:16:55.264Z,87.50
2017-09-01T02:19:22.926Z,87.30
2017-09-01T02:21:50.537Z,87.30
2017-09-01T02:24:18.179Z,87.10
2017-09-01T02:26:45.790Z,87.00
2017-09-01T02:29:13.383Z,87.30
2017-09-01T02:31:40.982Z,87.50
2017-09-01T02:34:08.577Z,87.50
2017-09-01T02:36:36.205Z,87.70
2017-09-01T02:39:03.824Z,87.50
2017-09-01T02:41:31.449Z,87.40
2017-09-01T02:43:59.049Z,87.00
2017-09-01T02:46:26.718Z,87.40
2017-09-01T02:48:54.303Z,87.40
2017-09-01T02:51:21.920Z,87.30
2017-09-01T02:53:49.568Z,87.30
2017-09-01T02:56:17.159Z,87.10
2017-09-01T02:58:44.749Z,87.20
2017-09-01T03:01:12.424Z,87.10
2017-09-01T03:03:40.280Z,87.20
2017-09-01T03:06:07.835Z,87.20
2017-09-01T03:08:35.473Z,87.40
2017-09-01T03:11:03.062Z,87.50
2017-09-01T03:13:30.740Z,87.60
2017-09-01T03:15:58.354Z,87.50
2017-09-01T03:18:25.989Z,87.20
2017-09-01T03:20:53.586Z,87.40
2017-09-01T03:23:21.970Z,87.70
2017-09-01T03:25:49.569Z,87.70
2017-09-01T03:28:17.197Z,87.50
2017-09-01T03:30:44.826Z,87.50
2017-09-01T03:33:12.429Z,87.80
2017-09-01T03:35:40.941Z,87.60
2017-09-01T03:38:08.683Z,87.40
2017-09-01T03:40:36.308Z,86.50
2017-09-01T03:43:04.022Z,86.60
2017-09-01T03:45:31.663Z,86.70
2017-09-01T03:47:59.297Z,86.80
2017-09-01T03:50:26.962Z,87.10
2017-09-01T03:52:54.643Z,86.90
2017-09-01T03:55:22.321Z,87.00
2017-09-01T03:57:50.236Z,87.40
2017-09-01T04:00:17.913Z,87.50
2017-09-01T04:02:45.683Z,87.10
2017-09-01T04:05:13.305Z,87.30
2017-09-01T04:07:40.979Z,87.20
2017-09-01T04:10:08.763Z,87.00
2017-09-01T04:12:36.366Z,87.10
2017-09-01T04:15:03.985Z,87.40
2017-09-01T04:17:31.604Z,88.00
2017-09-01T04:19:59.295Z,88.40
2017-09-01T04:22:26.964Z,87.80
2017-09-01T04:24:54.556Z,87.40
2017-09-01T04:27:22.197Z,87.60
2017-09-01T04:29:49.759Z,87.70
2017-09-01T04:32:17.396Z,87.80
2017-09-01T04:34:45.076Z,87.30
2017-09-01T04:37:13.589Z,87.30
2017-09-01T04:39:41.217Z,87.40
2017-09-01T04:42:08.825Z,87.70
2017-09-01T04:44:36.415Z,88.00
2017-09-01T04:47:03.999Z,88.50
2017-09-01T04:49:31.588Z,88.50
2017-09-01T04:51:59.221Z,88.40
2017-09-01T04:54:26.860Z,88.40
2017-09-01T04:56:54.462Z,88.10
2017-09-01T04:59:22.089Z,87.80
2017-09-01T05:01:49.731Z,87.80
2017-09-01T05:04:17.313Z,87.10
2017-09-01T05:06:45.829Z,87.10
2017-09-01T05:09:13.459Z,87.20
2017-09-01T05:11:41.072Z,87.10
2017-09-01T05:14:08.740Z,87.50
2017-09-01T05:16:36.354Z,87.40
2017-09-01T05:19:04.027Z,86.90
2017-09-01T05:21:31.653Z,87.10
2017-09-01T05:23:59.268Z,86.90
2017-09-01T05:26:26.886Z,86.40
2017-09-01T05:28:54.972Z,85.80
2017-09-01T05:31:22.582Z,85.70
2017-09-01T05:33:50.172Z,85.70
2017-09-01T05:36:17.771Z,85.90
2017-09-01T05:38:45.341Z,86.00
2017-09-01T05:41:12.992Z,86.50
2017-09-01T05:43:40.592Z,86.60
2017-09-01T05:46:08.196Z,87.00
2017-09-01T05:48:35.840Z,86.90
2017-09-01T05:51:03.548Z,87.10
2017-09-01T05:53:31.209Z,86.10
2017-09-01T05:55:58.817Z,85.90
2017-09-01T05:58:26.458Z,86.10
2017-09-01T06:00:54.081Z,85.90
2017-09-01T06:03:21.690Z,85.60
2017-09-01T06:05:49.324Z,85.40
2017-09-01T06:08:16.923Z,84.50
2017-09-01T06:10:45.338Z,84.00
2017-09-01T06:13:13.088Z,83.50
2017-09-01T06:15:40.692Z,83.00
2017-09-01T06:18:09.227Z,82.20
2017-09-01T06:20:36.908Z,82.20
2017-09-01T06:23:04.580Z,81.40
2017-09-01T06:25:32.197Z,81.20
2017-09-01T06:27:59.793Z,81.10
2017-09-01T06:30:27.440Z,81.10
2017-09-01T06:32:55.034Z,81.30
2017-09-01T06:35:22.678Z,81.30
2017-09-01T06:37:50.324Z,80.00
2017-09-01T06:40:17.967Z,79.00
2017-09-01T06:42:45.556Z,78.50
2017-09-01T06:45:13.204Z,78.80
2017-09-01T06:47:40.818Z,78.00
2017-09-01T06:50:08.473Z,77.80
2017-09-01T06:52:36.073Z,78.10
2017-09-01T06:55:03.687Z,79.20
2017-09-01T06:57:31.303Z,78.70
2017-09-01T06:59:59.002Z,79.20
2017-09-01T07:02:26.696Z,77.80
2017-09-01T07:04:54.547Z,77.80
2017-09-01T07:07:22.154Z,77.10
2017-09-01T07:09:49.782Z,77.10
2017-09-01T07:12:17.438Z,76.70
2017-09-01T07:14:45.116Z,75.80
2017-09-01T07:17:12.823Z,75.80
2017-09-01T07:19:40.647Z,75.20
2017-09-01T07:22:08.239Z,74.80
2017-09-01T07:24:35.914Z,74.50
2017-09-01T07:27:03.584Z,75.30
2017-09-01T07:29:31.258Z,75.60
2017-09-01T07:31:58.908Z,74.80
2017-09-01T07:34:26.534Z,75.10
2017-09-01T07:36:54.202Z,75.00
2017-09-01T07:39:21.801Z,75.60
2017-09-01T07:41:49.388Z,76.60
2017-09-01T07:44:17.056Z,76.80
2017-09-01T07:46:44.621Z,76.80
2017-09-01T07:49:12.195Z,76.40
2017-09-01T07:51:41.546Z,75.90
2017-09-01T07:54:09.201Z,75.80
2017-09-01T07:56:36.787Z,74.50
2017-09-01T07:59:04.426Z,73.40
2017-09-01T08:01:32.040Z,73.20
2017-09-01T08:03:59.696Z,72.00
2017-09-01T08:06:27.359Z,71.20
2017-09-01T08:08:55.017Z,71.10
2017-09-01T08:11:22.706Z,71.40
2017-09-01T08:13:50.326Z,72.20
2017-09-01T08:16:17.950Z,72.00
2017-09-01T08:18:45.621Z,70.30
2017-09-01T08:21:13.228Z,70.30
2017-09-01T08:23:40.841Z,69.50
2017-09-01T08:26:08.433Z,69.90
2017-09-01T08:28:36.096Z,69.60
2017-09-01T08:31:03.735Z,69.60
2017-09-01T08:33:31.368Z,70.00
2017-09-01T08:35:59.043Z,69.30
2017-09-01T08:38:27.527Z,69.20
2017-09-01T08:40:55.198Z,68.90
2017-09-01T08:43:22.892Z,68.50
2017-09-01T08:45:50.523Z,68.60
2017-09-01T08:48:18.148Z,67.40
2017-09-01T08:50:45.774Z,66.10
2017-09-01T08:53:13.406Z,67.20
2017-09-01T08:55:41.102Z,66.40
2017-09-01T08:58:08.737Z,66.70
2017-09-01T09:00:36.403Z,65.90
2017-09-01T09:03:04.088Z,66.20
2017-09-01T09:05:31.703Z,66.40
2017-09-01T09:07:59.293Z,65.30
2017-09-01T09:10:26.976Z,65.50
2017-09-01T09:12:54.608Z,66.50
2017-09-01T09:15:22.221Z,66.70
2017-09-01T09:17:50.917Z,66.10
2017-09-01T09:20:18.642Z,66.00
2017-09-01T09:22:46.304Z,66.00
2017-09-01T09:25:13.926Z,66.20
2017-09-01T09:27:41.557Z,65.70
2017-09-01T09:30:09.161Z,65.70
2017-09-01T09:32:36.810Z,66.00
2017-09-01T09:35:04.479Z,64.60
2017-09-01T09:37:32.077Z,64.90
2017-09-01T09:39:59.706Z,65.70
2017-09-01T09:42:28.173Z,65.50
2017-09-01T09:44:55.764Z,65.80
2017-09-01T09:47:23.404Z,65.80
2017-09-01T09:49:51.028Z,66.50
2017-09-01T09:52:18.634Z,68.50
2017-09-01T09:54:46.698Z,69.20
2017-09-01T09:57:14.352Z,69.50
2017-09-01T09:59:41.973Z,70.20
2017-09-01T10:02:09.616Z,70.30
2017-09-01T10:04:37.230Z,70.90
2017-09-01T10:07:04.861Z,70.60
2017-09-01T10:09:32.435Z,69.40
2017-09-01T10:12:00.013Z,69.60
2017-09-01T10:14:27.646Z,66.70
2017-09-01T10:16:55.836Z,67.20
2017-09-01T10:19:23.481Z,65.30
2017-09-01T10:21:51.073Z,64.30
2017-09-01T10:24:18.726Z,64.40
2017-09-01T10:26:46.911Z,64.40
2017-09-01T10:29:14.567Z,64.70
2017-09-01T10:31:42.276Z,64.50
2017-09-01T10:34:09.893Z,64.70
2017-09-01T10:36:37.560Z,65.50
2017-09-01T10:39:05.217Z,65.50
2017-09-01T10:41:32.861Z,65.30
2017-09-01T10:44:00.447Z,65.70
2017-09-01T10:46:28.098Z,65.30
2017-09-01T10:49:07.689Z,64.50
2017-09-01T10:51:47.180Z,64.70
2017-09-01T10:57:26.374Z,64.10
2017-09-01T10:59:54.035Z,64.00
2017-09-01T11:02:21.745Z,64.10
2017-09-01T11:04:49.402Z,63.00
2017-09-01T11:07:17.069Z,61.90
2017-09-01T11:09:44.738Z,63.30
2017-09-01T11:12:12.363Z,63.00
2017-09-01T11:14:39.994Z,62.50
2017-09-01T11:17:07.633Z,62.10
2017-09-01T11:19:40.854Z,62.50
2017-09-01T11:22:14.267Z,61.30
2017-09-01T11:24:42.029Z,61.20
2017-09-01T11:27:09.930Z,61.30
2017-09-01T11:29:37.584Z,59.70
2017-09-01T11:32:05.386Z,59.30
2017-09-01T11:34:33.072Z,59.80
2017-09-01T11:37:00.691Z,60.30
2017-09-01T11:39:28.436Z,58.50
2017-09-01T11:41:56.079Z,58.90
2017-09-01T11:44:23.714Z,56.60
2017-09-01T11:46:51.317Z,56.90
2017-09-01T11:49:18.974Z,55.90
2017-09-01T11:51:46.713Z,54.30
2017-09-01T11:54:15.062Z,54.40
2017-09-01T11:56:42.809Z,54.10
2017-09-01T11:59:10.483Z,53.70
2017-09-01T12:01:38.109Z,52.40
2017-09-01T12:04:05.866Z,52.10
2017-09-01T12:06:33.515Z,52.40
2017-09-01T12:09:01.138Z,52.90
2017-09-01T12:11:28.708Z,53.50
2017-09-01T12:13:56.352Z,53.40
2017-09-01T12:16:23.954Z,53.60
2017-09-01T12:18:51.610Z,52.80
2017-09-01T12:21:19.249Z,53.00
2017-09-01T12:23:46.938Z,53.70
2017-09-01T12:26:14.671Z,53.80
2017-09-01T12:28:42.284Z,53.50
2017-09-01T12:31:09.888Z,53.30
2017-09-01T12:33:37.498Z,51.70
2017-09-01T12:36:05.123Z,49.80
2017-09-01T12:38:32.847Z,50.20
2017-09-01T12:41:00.505Z,50.20
2017-09-01T12:43:28.171Z,50.90
2017-09-01T12:45:55.804Z,50.90
2017-09-01T12:48:23.424Z,51.10
2017-09-01T12:50:51.067Z,51.60
2017-09-01T12:53:18.731Z,51.20
2017-09-01T12:55:46.372Z,50.80
2017-09-01T12:58:13.981Z,49.90
2017-09-01T13:00:41.697Z,49.40
2017-09-01T13:03:09.363Z,50.70
2017-09-01T13:05:37.108Z,51.60
2017-09-01T13:08:04.716Z,52.10
2017-09-01T13:10:32.312Z,52.70
2017-09-01T13:13:00.005Z,52.40
2017-09-01T13:15:27.611Z,52.70
2017-09-01T13:17:55.718Z,52.20
2017-09-01T13:20:23.420Z,51.30
2017-09-01T13:22:51.426Z,50.80
2017-09-01T13:25:19.100Z,51.00
2017-09-01T13:27:46.734Z,50.90
2017-09-01T13:30:14.336Z,50.80
2017-09-01T13:32:41.964Z,51.10
2017-09-01T13:35:10.538Z,51.20
2017-09-01T13:37:38.194Z,51.30
2017-09-01T13:40:05.799Z,50.40
2017-09-01T13:42:33.437Z,49.50
2017-09-01T13:45:01.040Z,49.20
2017-09-01T13:47:28.666Z,50.00
2017-09-01T13:49:56.324Z,50.90
2017-09-01T13:52:23.902Z,51.00
2017-09-01T13:54:51.530Z,51.30
2017-09-01T13:57:19.147Z,52.40
2017-09-01T13:59:46.838Z,51.30
2017-09-01T14:02:14.476Z,50.90
2017-09-01T14:04:42.355Z,51.00
2017-09-01T14:07:09.979Z,51.60
2017-09-01T14:09:37.586Z,52.40
2017-09-01T14:12:05.248Z,52.70
2017-09-01T14:14:32.870Z,52.30
2017-09-01T14:17:00.488Z,52.50
2017-09-01T14:19:28.075Z,53.00
2017-09-01T14:21:55.755Z,53.10
2017-09-01T14:24:23.406Z,52.70
2017-09-01T14:26:51.016Z,53.10
2017-09-01T14:29:18.630Z,53.50
2017-09-01T14:31:46.322Z,54.90
2017-09-01T14:34:13.925Z,58.10
2017-09-01T14:36:41.487Z,59.40
2017-09-01T14:39:09.118Z,59.40
2017-09-01T14:41:36.703Z,59.80
2017-09-01T14:44:04.319Z,59.70
2017-09-01T14:46:31.902Z,58.90
2017-09-01T14:48:59.502Z,59.10
2017-09-01T14:51:27.149Z,59.20
2017-09-01T14:53:54.718Z,59.30
2017-09-01T14:56:22.349Z,59.20
2017-09-01T14:58:49.982Z,58.70
2017-09-01T15:01:17.589Z,58.10
2017-09-01T15:03:45.206Z,57.60
2017-09-01T15:06:12.839Z,57.50
2017-09-01T15:08:40.459Z,57.80
2017-09-01T15:11:08.070Z,57.80
2017-09-01T15:13:35.683Z,57.50
2017-09-01T15:16:03.297Z,58.10
2017-09-01T15:18:30.888Z,58.10
2017-09-01T15:20:58.532Z,57.80
2017-09-01T15:23:26.179Z,57.20
2017-09-01T15:25:53.804Z,57.50
2017-09-01T15:28:21.428Z,57.50
2017-09-01T15:30:49.060Z,58.30
2017-09-01T15:33:16.684Z,58.90
2017-09-01T15:35:44.748Z,60.60
2017-09-01T15:38:12.397Z,62.00
2017-09-01T15:40:40.029Z,62.20
2017-09-01T15:43:07.685Z,60.30
2017-09-01T15:45:35.307Z,57.70
2017-09-01T15:48:02.976Z,56.30
2017-09-01T15:53:04.713Z,58.60
2017-09-01T15:55:32.356Z,60.80
2017-09-01T15:58:00.056Z,62.50
2017-09-01T16:00:27.673Z,63.50
2017-09-01T16:02:55.276Z,63.60
2017-09-01T16:05:22.870Z,64.20
2017-09-01T16:07:50.587Z,62.90
2017-09-01T16:10:18.189Z,62.80
2017-09-01T16:12:45.770Z,63.90
2017-09-01T16:15:13.358Z,64.50
2017-09-01T16:17:40.968Z,65.10
2017-09-01T16:20:08.590Z,65.20
2017-09-01T16:22:36.176Z,64.20
2017-09-01T16:25:03.790Z,64.60
2017-09-01T16:27:31.532Z,65.80
2017-09-01T16:29:59.218Z,67.60
2017-09-01T16:32:26.876Z,69.00
2017-09-01T16:34:54.462Z,69.50
2017-09-01T16:37:22.038Z,72.10
2017-09-01T16:39:49.749Z,73.10
2017-09-01T16:42:17.343Z,74.10
2017-09-01T16:44:44.932Z,75.00
2017-09-01T16:47:12.545Z,75.30
2017-09-01T16:49:40.161Z,74.50
2017-09-01T16:52:08.155Z,73.30
2017-09-01T16:54:35.792Z,73.50
2017-09-01T16:57:03.482Z,74.10
2017-09-01T16:59:31.087Z,73.50
2017-09-01T17:01:58.733Z,73.30
2017-09-01T17:04:26.362Z,73.40
2017-09-01T17:06:53.941Z,73.00
2017-09-01T17:09:21.565Z,73.00
2017-09-01T17:11:49.196Z,73.00
2017-09-01T17:14:16.822Z,73.20
2017-09-01T17:16:44.458Z,72.80
2017-09-01T17:19:12.671Z,73.00
2017-09-01T17:21:40.304Z,73.40
2017-09-01T17:24:07.934Z,73.30
2017-09-01T17:26:35.527Z,73.60
2017-09-01T17:29:03.179Z,73.20
2017-09-01T17:31:30.803Z,73.20
2017-09-01T17:33:58.440Z,73.50
2017-09-01T17:36:26.058Z,73.50
2017-09-01T17:38:53.689Z,72.90
2017-09-01T17:41:21.323Z,73.40
2017-09-01T17:43:48.934Z,74.70
2017-09-01T17:46:16.554Z,73.50
2017-09-01T17:48:44.185Z,73.80
2017-09-01T17:51:11.797Z,73.70
2017-09-01T17:53:39.464Z,73.90
2017-09-01T17:56:07.116Z,74.40
2017-09-01T17:58:35.634Z,74.20
2017-09-01T18:01:03.267Z,73.50
2017-09-01T18:03:30.840Z,73.10
2017-09-01T18:05:58.482Z,73.30
2017-09-01T18:08:26.225Z,73.20
2017-09-01T18:10:56.155Z,72.20
2017-09-01T18:13:23.759Z,72.50
2017-09-01T18:15:51.440Z,72.00
2017-09-01T18:18:19.258Z,71.50
2017-09-01T18:20:47.446Z,70.10
2017-09-01T18:23:15.326Z,69.60
2017-09-01T18:25:42.945Z,70.20
2017-09-01T18:28:10.749Z,69.30
2017-09-01T18:30:38.418Z,69.40
2017-09-01T18:33:06.033Z,69.70
2017-09-01T18:35:33.690Z,69.30
2017-09-01T18:38:01.657Z,68.90
2017-09-01T18:40:29.292Z,69.00
2017-09-01T18:42:56.951Z,68.80
2017-09-01T18:45:24.556Z,69.20
2017-09-01T18:47:52.152Z,69.00
2017-09-01T18:50:19.748Z,68.30
2017-09-01T18:52:47.386Z,69.00
2017-09-01T18:55:15.090Z,69.20
2017-09-01T18:57:42.738Z,68.40
2017-09-01T19:00:10.352Z,70.30
2017-09-01T19:02:38.016Z,69.70
2017-09-01T19:05:05.725Z,69.00
2017-09-01T19:07:33.419Z,69.10
2017-09-01T19:10:01.058Z,69.20
2017-09-01T19:12:28.641Z,70.30
2017-09-01T19:14:56.266Z,69.60
2017-09-01T19:17:23.901Z,69.00
2017-09-01T19:19:51.531Z,70.00
2017-09-01T19:22:19.140Z,69.60
2017-09-01T19:24:46.793Z,70.40
2017-09-01T19:27:14.443Z,70.80
2017-09-01T19:29:42.073Z,70.80
2017-09-01T19:32:22.777Z,71.40
2017-09-01T19:34:50.335Z,72.20
2017-09-01T19:37:17.902Z,73.30
2017-09-01T19:39:45.900Z,74.20
2017-09-01T19:42:13.490Z,75.10
2017-09-01T19:44:41.099Z,74.90
2017-09-01T19:47:08.710Z,75.30
2017-09-01T19:49:36.313Z,74.60
2017-09-01T19:52:04.516Z,74.60
2017-09-01T19:54:32.122Z,75.20
2017-09-01T19:56:59.672Z,74.80
2017-09-01T19:59:27.259Z,75.20
2017-09-01T20:01:54.845Z,76.40
2017-09-01T20:04:22.379Z,75.40
2017-09-01T20:06:49.957Z,74.50
2017-09-01T20:09:17.601Z,74.30
2017-09-01T20:11:45.263Z,74.80
2017-09-01T20:14:13.437Z,73.50
2017-09-01T20:16:41.025Z,73.20
2017-09-01T20:19:08.627Z,73.50
2017-09-01T20:21:36.234Z,72.90
2017-09-01T20:24:03.806Z,73.10
2017-09-01T20:26:31.439Z,71.90
2017-09-01T20:28:59.017Z,71.10
2017-09-01T20:31:26.645Z,71.30
2017-09-01T20:33:54.229Z,70.90
2017-09-01T20:36:21.786Z,71.60
2017-09-01T20:38:49.421Z,71.50
2017-09-01T20:41:17.006Z,71.60
2017-09-01T20:43:44.551Z,72.50
2017-09-01T20:46:12.157Z,73.90
2017-09-01T20:48:39.714Z,73.00
2017-09-01T20:51:07.283Z,73.30
2017-09-01T20:53:34.875Z,73.70
2017-09-01T20:56:02.459Z,73.90
2017-09-01T20:58:29.994Z,74.10
2017-09-01T21:00:57.575Z,74.40
2017-09-01T21:03:25.133Z,74.10
2017-09-01T21:05:52.700Z,74.30
2017-09-01T21:08:20.325Z,73.80
2017-09-01T21:10:47.900Z,73.30
2017-09-01T21:13:15.448Z,73.10
2017-09-01T21:15:43.123Z,73.10
2017-09-01T21:18:10.750Z,72.60
2017-09-01T21:20:38.349Z,72.90
2017-09-01T21:23:05.935Z,74.10
2017-09-01T21:25:33.516Z,73.30
2017-09-01T21:28:01.093Z,74.00
2017-09-01T21:30:29.470Z,74.50
2017-09-01T21:32:57.489Z,74.60
2017-09-01T21:35:25.093Z,72.90
2017-09-01T21:37:52.675Z,72.90
2017-09-01T21:40:20.237Z,73.50
2017-09-01T21:42:47.797Z,72.70
2017-09-01T21:45:15.458Z,72.50
2017-09-01T21:47:43.036Z,72.50
2017-09-01T21:50:10.589Z,72.50
2017-09-01T21:52:38.162Z,72.60
2017-09-01T21:55:05.749Z,73.10
2017-09-01T21:57:33.347Z,73.70
2017-09-01T22:00:00.921Z,74.10
2017-09-01T22:02:28.482Z,74.00
2017-09-01T22:04:56.042Z,74.40
2017-09-01T22:07:23.610Z,74.60
2017-09-01T22:09:51.192Z,74.60
2017-09-01T22:12:18.760Z,74.30
2017-09-01T22:14:47.268Z,74.30
2017-09-01T22:17:14.846Z,74.20
2017-09-01T22:19:42.379Z,74.40
2017-09-01T22:22:10.001Z,74.40
2017-09-01T22:24:37.843Z,74.40
2017-09-01T22:27:05.432Z,74.10
2017-09-01T22:29:33.028Z,74.20
2017-09-01T22:32:00.576Z,74.10
2017-09-01T22:34:29.139Z,74.10
2017-09-01T22:36:56.728Z,73.90
2017-09-01T22:39:24.327Z,73.40
2017-09-01T22:41:52.599Z,73.40
2017-09-01T22:44:20.156Z,73.20
2017-09-01T22:46:47.747Z,72.40
2017-09-01T22:49:15.293Z,72.80
2017-09-01T22:51:42.906Z,72.90
2017-09-01T22:54:10.522Z,72.70
2017-09-01T22:56:38.835Z,73.40
2017-09-01T22:59:06.426Z,73.40
2017-09-01T23:01:34.025Z,73.40
2017-09-01T23:04:01.634Z,73.60
2017-09-01T23:06:29.225Z,73.60
2017-09-01T23:08:56.773Z,73.70
2017-09-01T23:11:24.349Z,73.90
2017-09-01T23:13:51.977Z,73.80
2017-09-01T23:16:19.547Z,74.40
2017-09-01T23:18:47.136Z,74.40
2017-09-01T23:21:14.724Z,75.10
2017-09-01T23:23:42.309Z,75.40
2017-09-01T23:26:09.873Z,75.60
2017-09-01T23:28:37.466Z,76.20
2017-09-01T23:31:05.114Z,76.20
2017-09-01T23:33:32.682Z,76.40
2017-09-01T23:36:00.246Z,76.50
2017-09-01T23:38:27.820Z,76.80
2017-09-01T23:40:55.398Z,77.10
2017-09-01T23:43:23.001Z,77.20
2017-09-01T23:45:50.548Z,77.50
2017-09-01T23:48:18.098Z,77.60
2017-09-01T23:50:45.675Z,77.80
2017-09-01T23:53:13.288Z,77.90
2017-09-01T23:55:40.854Z,78.20
2017-09-01T23:58:08.754Z,78.60
